sensor_id;sensor_type;location;lat;lon;timestamp;temperature;humidity
16929;DHT22;8581;47.334;11.190;2023-04-03T00:02:16;1.00;99.90
16929;DHT22;8581;47.334;11.190;2023-04-03T00:05:02;1.00;99.90
16929;DHT22;8581;47.334;11.190;2023-04-03T00:07:51;1.00;99.90
16929;DHT22;8581;47.334;11.190;2023-04-03T00:10:37;1.00;99.90
16929;DHT22;8581;47.334;11.190;2023-04-03T00:13:12;0.90;99.90
16929;DHT22;8581;47.334;11.190;2023-04-03T00:15:55;0.90;99.90
16929;DHT22;8581;47.334;11.190;2023-04-03T00:18:34;1.00;99.90
16929;DHT22;8581;47.334;11.190;2023-04-03T00:24:07;1.10;99.90
16929;DHT22;8581;47.334;11.190;2023-04-03T00:27:02;1.10;99.90
16929;DHT22;8581;47.334;11.190;2023-04-03T00:29:42;1.00;99.90
16929;DHT22;8581;47.334;11.190;2023-04-03T00:32:23;1.00;99.90
16929;DHT22;8581;47.334;11.190;2023-04-03T00:35:10;0.90;99.90
16929;DHT22;8581;47.334;11.190;2023-04-03T00:37:42;0.80;99.90
16929;DHT22;8581;47.334;11.190;2023-04-03T00:40:38;0.80;99.90
16929;DHT22;8581;47.334;11.190;2023-04-03T00:43:20;0.80;99.90
16929;DHT22;8581;47.334;11.190;2023-04-03T00:45:58;0.80;99.90
16929;DHT22;8581;47.334;11.190;2023-04-03T00:48:41;0.30;99.90
16929;DHT22;8581;47.334;11.190;2023-04-03T00:51:16;0.80;99.90
16929;DHT22;8581;47.334;11.190;2023-04-03T00:53:50;0.80;99.90
16929;DHT22;8581;47.334;11.190;2023-04-03T00:56:21;0.80;99.90
16929;DHT22;8581;47.334;11.190;2023-04-03T00:58:59;0.90;99.90
16929;DHT22;8581;47.334;11.190;2023-04-03T01:01:41;0.90;99.90
16929;DHT22;8581;47.334;11.190;2023-04-03T01:07:17;0.90;99.90
16929;DHT22;8581;47.334;11.190;2023-04-03T01:09:48;0.90;99.90
16929;DHT22;8581;47.334;11.190;2023-04-03T01:12:24;0.80;99.90
16929;DHT22;8581;47.334;11.190;2023-04-03T01:14:58;0.80;99.90
16929;DHT22;8581;47.334;11.190;2023-04-03T01:17:47;0.90;99.90
16929;DHT22;8581;47.334;11.190;2023-04-03T01:26:01;1.00;99.90
16929;DHT22;8581;47.334;11.190;2023-04-03T01:28:36;1.00;99.90
16929;DHT22;8581;47.334;11.190;2023-04-03T01:31:31;1.00;99.90
16929;DHT22;8581;47.334;11.190;2023-04-03T01:34:09;0.90;99.90
16929;DHT22;8581;47.334;11.190;2023-04-03T01:39:37;0.80;99.90
16929;DHT22;8581;47.334;11.190;2023-04-03T01:42:12;0.80;99.90
16929;DHT22;8581;47.334;11.190;2023-04-03T01:44:53;0.70;99.90
16929;DHT22;8581;47.334;11.190;2023-04-03T01:47:39;0.60;99.90
16929;DHT22;8581;47.334;11.190;2023-04-03T01:50:11;0.80;99.90
16929;DHT22;8581;47.334;11.190;2023-04-03T01:52:44;0.70;99.90
16929;DHT22;8581;47.334;11.190;2023-04-03T01:55:16;0.50;99.90
16929;DHT22;8581;47.334;11.190;2023-04-03T01:57:48;0.50;99.90
16929;DHT22;8581;47.334;11.190;2023-04-03T02:00:20;0.30;99.90
16929;DHT22;8581;47.334;11.190;2023-04-03T02:02:51;0.20;99.90
16929;DHT22;8581;47.334;11.190;2023-04-03T02:05:23;0.20;99.90
16929;DHT22;8581;47.334;11.190;2023-04-03T02:07:54;0.10;99.90
16929;DHT22;8581;47.334;11.190;2023-04-03T02:10:26;0.10;99.90
16929;DHT22;8581;47.334;11.190;2023-04-03T02:12:57;0.00;99.90
16929;DHT22;8581;47.334;11.190;2023-04-03T02:15:29;0.00;99.90
16929;DHT22;8581;47.334;11.190;2023-04-03T02:18:01;0.10;99.90
16929;DHT22;8581;47.334;11.190;2023-04-03T02:20:32;0.10;99.90
16929;DHT22;8581;47.334;11.190;2023-04-03T02:23:04;0.10;99.90
16929;DHT22;8581;47.334;11.190;2023-04-03T02:25:36;0.00;99.90
16929;DHT22;8581;47.334;11.190;2023-04-03T02:28:07;-0.10;99.90
16929;DHT22;8581;47.334;11.190;2023-04-03T02:30:39;-0.10;99.90
16929;DHT22;8581;47.334;11.190;2023-04-03T02:33:10;-0.20;99.90
16929;DHT22;8581;47.334;11.190;2023-04-03T02:35:42;-0.20;99.90
16929;DHT22;8581;47.334;11.190;2023-04-03T02:38:13;-0.20;99.90
16929;DHT22;8581;47.334;11.190;2023-04-03T02:40:45;-0.20;99.90
16929;DHT22;8581;47.334;11.190;2023-04-03T02:43:17;-0.20;99.90
16929;DHT22;8581;47.334;11.190;2023-04-03T02:45:48;-0.20;99.90
16929;DHT22;8581;47.334;11.190;2023-04-03T02:48:20;-0.20;99.90
16929;DHT22;8581;47.334;11.190;2023-04-03T02:50:51;-0.20;99.90
16929;DHT22;8581;47.334;11.190;2023-04-03T02:53:23;-0.20;99.90
16929;DHT22;8581;47.334;11.190;2023-04-03T02:55:55;-0.20;99.90
16929;DHT22;8581;47.334;11.190;2023-04-03T02:58:26;-0.20;99.90
16929;DHT22;8581;47.334;11.190;2023-04-03T03:00:58;-0.20;99.90
16929;DHT22;8581;47.334;11.190;2023-04-03T03:03:29;-0.10;99.90
16929;DHT22;8581;47.334;11.190;2023-04-03T03:06:04;-0.10;99.90
16929;DHT22;8581;47.334;11.190;2023-04-03T03:08:36;0.00;99.90
16929;DHT22;8581;47.334;11.190;2023-04-03T03:11:08;0.10;99.90
16929;DHT22;8581;47.334;11.190;2023-04-03T03:13:39;0.00;99.90
16929;DHT22;8581;47.334;11.190;2023-04-03T03:16:11;-0.10;99.90
16929;DHT22;8581;47.334;11.190;2023-04-03T03:18:42;-0.10;99.90
16929;DHT22;8581;47.334;11.190;2023-04-03T03:21:14;-0.10;99.90
16929;DHT22;8581;47.334;11.190;2023-04-03T03:23:45;0.00;99.90
16929;DHT22;8581;47.334;11.190;2023-04-03T03:26:17;-0.10;99.90
16929;DHT22;8581;47.334;11.190;2023-04-03T03:28:49;-0.20;99.90
16929;DHT22;8581;47.334;11.190;2023-04-03T03:31:20;-0.20;99.90
16929;DHT22;8581;47.334;11.190;2023-04-03T03:33:52;-0.30;99.90
16929;DHT22;8581;47.334;11.190;2023-04-03T03:36:23;-0.40;99.90
16929;DHT22;8581;47.334;11.190;2023-04-03T03:38:55;-0.30;99.90
16929;DHT22;8581;47.334;11.190;2023-04-03T03:41:27;-0.30;99.90
16929;DHT22;8581;47.334;11.190;2023-04-03T03:43:58;-0.40;99.90
16929;DHT22;8581;47.334;11.190;2023-04-03T03:46:30;-0.50;99.90
16929;DHT22;8581;47.334;11.190;2023-04-03T03:49:01;-0.40;99.90
16929;DHT22;8581;47.334;11.190;2023-04-03T03:51:33;-0.30;99.90
16929;DHT22;8581;47.334;11.190;2023-04-03T03:54:05;-0.30;99.90
16929;DHT22;8581;47.334;11.190;2023-04-03T03:56:36;-0.20;99.90
16929;DHT22;8581;47.334;11.190;2023-04-03T03:59:10;-0.10;99.90
16929;DHT22;8581;47.334;11.190;2023-04-03T04:01:40;0.00;99.90
16929;DHT22;8581;47.334;11.190;2023-04-03T04:04:11;-0.10;99.90
16929;DHT22;8581;47.334;11.190;2023-04-03T04:06:43;-0.30;99.90
16929;DHT22;8581;47.334;11.190;2023-04-03T04:09:14;-0.20;99.90
16929;DHT22;8581;47.334;11.190;2023-04-03T04:11:46;-0.10;99.90
16929;DHT22;8581;47.334;11.190;2023-04-03T04:14:18;0.00;99.90
16929;DHT22;8581;47.334;11.190;2023-04-03T04:16:49;-0.10;99.90
16929;DHT22;8581;47.334;11.190;2023-04-03T04:19:21;-0.20;99.90
16929;DHT22;8581;47.334;11.190;2023-04-03T04:21:53;-0.20;99.90
16929;DHT22;8581;47.334;11.190;2023-04-03T04:24:24;-0.20;99.90
16929;DHT22;8581;47.334;11.190;2023-04-03T04:26:56;-0.10;99.90
16929;DHT22;8581;47.334;11.190;2023-04-03T04:29:27;-0.10;99.90
16929;DHT22;8581;47.334;11.190;2023-04-03T04:31:59;-0.10;99.90
16929;DHT22;8581;47.334;11.190;2023-04-03T04:34:30;-0.30;99.90
16929;DHT22;8581;47.334;11.190;2023-04-03T04:37:02;-0.30;99.90
16929;DHT22;8581;47.334;11.190;2023-04-03T04:39:34;-0.40;99.90
16929;DHT22;8581;47.334;11.190;2023-04-03T04:42:05;-0.30;99.90
16929;DHT22;8581;47.334;11.190;2023-04-03T04:44:37;-0.40;99.90
16929;DHT22;8581;47.334;11.190;2023-04-03T04:47:09;-0.30;99.90
16929;DHT22;8581;47.334;11.190;2023-04-03T04:49:40;-0.30;99.90
16929;DHT22;8581;47.334;11.190;2023-04-03T04:52:12;-0.30;99.90
16929;DHT22;8581;47.334;11.190;2023-04-03T04:54:44;-0.30;99.90
16929;DHT22;8581;47.334;11.190;2023-04-03T04:57:15;-0.30;99.90
16929;DHT22;8581;47.334;11.190;2023-04-03T04:59:46;-0.20;99.90
16929;DHT22;8581;47.334;11.190;2023-04-03T05:02:18;-0.30;99.90
16929;DHT22;8581;47.334;11.190;2023-04-03T05:04:50;-0.30;99.90
16929;DHT22;8581;47.334;11.190;2023-04-03T05:07:22;-0.40;99.90
16929;DHT22;8581;47.334;11.190;2023-04-03T05:09:53;-0.30;99.90
16929;DHT22;8581;47.334;11.190;2023-04-03T05:12:25;-0.30;99.90
16929;DHT22;8581;47.334;11.190;2023-04-03T05:14:56;-0.20;99.90
16929;DHT22;8581;47.334;11.190;2023-04-03T05:17:28;-0.20;99.90
16929;DHT22;8581;47.334;11.190;2023-04-03T05:19:59;-0.10;99.90
16929;DHT22;8581;47.334;11.190;2023-04-03T05:22:31;0.00;99.90
16929;DHT22;8581;47.334;11.190;2023-04-03T05:25:03;0.00;99.90
16929;DHT22;8581;47.334;11.190;2023-04-03T05:27:35;-0.10;99.90
16929;DHT22;8581;47.334;11.190;2023-04-03T05:30:08;-0.10;99.90
16929;DHT22;8581;47.334;11.190;2023-04-03T05:32:39;0.00;99.90
16929;DHT22;8581;47.334;11.190;2023-04-03T05:35:11;0.00;99.90
16929;DHT22;8581;47.334;11.190;2023-04-03T05:37:43;0.20;99.90
16929;DHT22;8581;47.334;11.190;2023-04-03T05:40:14;0.00;99.90
16929;DHT22;8581;47.334;11.190;2023-04-03T05:42:46;0.00;99.90
16929;DHT22;8581;47.334;11.190;2023-04-03T05:45:17;0.10;99.90
16929;DHT22;8581;47.334;11.190;2023-04-03T05:47:49;0.30;99.90
16929;DHT22;8581;47.334;11.190;2023-04-03T05:50:21;0.20;99.90
16929;DHT22;8581;47.334;11.190;2023-04-03T05:52:52;0.20;99.90
16929;DHT22;8581;47.334;11.190;2023-04-03T05:55:24;0.20;99.90
16929;DHT22;8581;47.334;11.190;2023-04-03T05:57:55;0.30;99.90
16929;DHT22;8581;47.334;11.190;2023-04-03T06:00:27;0.40;99.90
16929;DHT22;8581;47.334;11.190;2023-04-03T06:02:59;0.60;99.90
16929;DHT22;8581;47.334;11.190;2023-04-03T06:05:30;0.60;99.90
16929;DHT22;8581;47.334;11.190;2023-04-03T06:08:02;0.50;99.90
16929;DHT22;8581;47.334;11.190;2023-04-03T06:10:34;0.70;99.90
16929;DHT22;8581;47.334;11.190;2023-04-03T06:13:05;0.60;99.90
16929;DHT22;8581;47.334;11.190;2023-04-03T06:15:37;0.60;99.90
16929;DHT22;8581;47.334;11.190;2023-04-03T06:18:09;0.50;99.90
16929;DHT22;8581;47.334;11.190;2023-04-03T06:20:40;0.40;99.90
16929;DHT22;8581;47.334;11.190;2023-04-03T06:23:12;0.60;99.90
16929;DHT22;8581;47.334;11.190;2023-04-03T06:25:44;0.50;99.90
16929;DHT22;8581;47.334;11.190;2023-04-03T06:28:15;0.60;99.90
16929;DHT22;8581;47.334;11.190;2023-04-03T06:30:47;0.60;99.90
16929;DHT22;8581;47.334;11.190;2023-04-03T06:33:18;0.80;99.90
16929;DHT22;8581;47.334;11.190;2023-04-03T06:35:55;0.80;99.90
16929;DHT22;8581;47.334;11.190;2023-04-03T06:38:21;1.00;99.90
16929;DHT22;8581;47.334;11.190;2023-04-03T06:40:53;1.00;99.90
16929;DHT22;8581;47.334;11.190;2023-04-03T06:43:25;1.10;99.90
16929;DHT22;8581;47.334;11.190;2023-04-03T06:45:56;1.10;99.90
16929;DHT22;8581;47.334;11.190;2023-04-03T06:48:28;1.10;99.90
16929;DHT22;8581;47.334;11.190;2023-04-03T06:50:59;1.20;99.90
16929;DHT22;8581;47.334;11.190;2023-04-03T06:53:31;1.30;99.90
16929;DHT22;8581;47.334;11.190;2023-04-03T06:56:06;1.50;99.90
16929;DHT22;8581;47.334;11.190;2023-04-03T06:58:37;1.70;99.90
16929;DHT22;8581;47.334;11.190;2023-04-03T07:01:10;2.00;99.90
16929;DHT22;8581;47.334;11.190;2023-04-03T07:03:40;2.10;99.90
16929;DHT22;8581;47.334;11.190;2023-04-03T07:06:12;2.10;99.90
16929;DHT22;8581;47.334;11.190;2023-04-03T07:08:44;2.00;99.90
16929;DHT22;8581;47.334;11.190;2023-04-03T07:11:16;2.10;99.90
16929;DHT22;8581;47.334;11.190;2023-04-03T07:13:47;1.90;99.90
16929;DHT22;8581;47.334;11.190;2023-04-03T07:16:19;1.90;99.90
16929;DHT22;8581;47.334;11.190;2023-04-03T07:18:50;2.00;99.90
16929;DHT22;8581;47.334;11.190;2023-04-03T07:21:22;2.10;99.90
16929;DHT22;8581;47.334;11.190;2023-04-03T07:23:55;2.30;99.90
16929;DHT22;8581;47.334;11.190;2023-04-03T07:26:33;2.30;99.90
16929;DHT22;8581;47.334;11.190;2023-04-03T07:29:06;2.10;99.90
16929;DHT22;8581;47.334;11.190;2023-04-03T07:31:42;2.40;99.90
16929;DHT22;8581;47.334;11.190;2023-04-03T07:34:14;2.70;99.90
16929;DHT22;8581;47.334;11.190;2023-04-03T07:36:46;2.70;99.90
16929;DHT22;8581;47.334;11.190;2023-04-03T07:39:18;2.90;99.90
16929;DHT22;8581;47.334;11.190;2023-04-03T07:41:50;3.00;99.90
16929;DHT22;8581;47.334;11.190;2023-04-03T07:44:21;2.80;99.90
16929;DHT22;8581;47.334;11.190;2023-04-03T07:46:53;2.60;99.90
16929;DHT22;8581;47.334;11.190;2023-04-03T07:49:25;2.60;99.90
16929;DHT22;8581;47.334;11.190;2023-04-03T07:51:56;2.80;99.90
16929;DHT22;8581;47.334;11.190;2023-04-03T07:54:28;2.90;99.90
16929;DHT22;8581;47.334;11.190;2023-04-03T07:57:00;3.40;99.90
16929;DHT22;8581;47.334;11.190;2023-04-03T07:59:31;3.60;99.90
16929;DHT22;8581;47.334;11.190;2023-04-03T08:02:04;3.70;99.90
16929;DHT22;8581;47.334;11.190;2023-04-03T08:04:35;3.30;99.90
16929;DHT22;8581;47.334;11.190;2023-04-03T08:07:07;3.50;99.90
16929;DHT22;8581;47.334;11.190;2023-04-03T08:09:39;3.70;99.90
16929;DHT22;8581;47.334;11.190;2023-04-03T08:12:10;3.50;99.90
16929;DHT22;8581;47.334;11.190;2023-04-03T08:14:42;3.60;99.90
16929;DHT22;8581;47.334;11.190;2023-04-03T08:17:13;3.60;99.90
16929;DHT22;8581;47.334;11.190;2023-04-03T08:19:45;3.80;99.90
16929;DHT22;8581;47.334;11.190;2023-04-03T08:22:16;4.00;99.90
16929;DHT22;8581;47.334;11.190;2023-04-03T08:24:48;4.00;99.90
16929;DHT22;8581;47.334;11.190;2023-04-03T08:27:20;3.90;99.90
16929;DHT22;8581;47.334;11.190;2023-04-03T08:29:51;3.60;99.90
16929;DHT22;8581;47.334;11.190;2023-04-03T08:32:23;3.70;99.90
16929;DHT22;8581;47.334;11.190;2023-04-03T08:34:55;3.90;99.90
16929;DHT22;8581;47.334;11.190;2023-04-03T08:37:26;4.10;99.90
16929;DHT22;8581;47.334;11.190;2023-04-03T08:39:58;4.20;99.90
16929;DHT22;8581;47.334;11.190;2023-04-03T08:42:36;4.10;99.90
16929;DHT22;8581;47.334;11.190;2023-04-03T08:45:16;4.40;99.90
16929;DHT22;8581;47.334;11.190;2023-04-03T08:47:59;4.70;99.90
16929;DHT22;8581;47.334;11.190;2023-04-03T08:50:33;4.80;99.90
16929;DHT22;8581;47.334;11.190;2023-04-03T08:53:03;4.70;99.90
16929;DHT22;8581;47.334;11.190;2023-04-03T08:55:37;4.60;99.90
16929;DHT22;8581;47.334;11.190;2023-04-03T08:58:09;4.60;99.90
16929;DHT22;8581;47.334;11.190;2023-04-03T09:00:43;4.50;99.90
16929;DHT22;8581;47.334;11.190;2023-04-03T09:03:17;5.30;99.90
16929;DHT22;8581;47.334;11.190;2023-04-03T09:05:55;6.70;99.90
16929;DHT22;8581;47.334;11.190;2023-04-03T09:08:27;7.50;99.90
16929;DHT22;8581;47.334;11.190;2023-04-03T09:11:11;8.10;99.90
16929;DHT22;8581;47.334;11.190;2023-04-03T09:13:46;8.80;99.90
16929;DHT22;8581;47.334;11.190;2023-04-03T09:16:19;8.80;99.90
16929;DHT22;8581;47.334;11.190;2023-04-03T09:18:48;9.10;99.90
16929;DHT22;8581;47.334;11.190;2023-04-03T09:21:23;9.50;99.90
16929;DHT22;8581;47.334;11.190;2023-04-03T09:23:53;9.20;99.90
16929;DHT22;8581;47.334;11.190;2023-04-03T09:26:29;9.30;99.90
16929;DHT22;8581;47.334;11.190;2023-04-03T09:29:01;9.60;99.90
16929;DHT22;8581;47.334;11.190;2023-04-03T09:31:37;9.40;99.90
16929;DHT22;8581;47.334;11.190;2023-04-03T09:34:14;8.70;99.90
16929;DHT22;8581;47.334;11.190;2023-04-03T09:39:51;7.80;99.90
16929;DHT22;8581;47.334;11.190;2023-04-03T09:42:25;7.00;99.90
16929;DHT22;8581;47.334;11.190;2023-04-03T09:44:58;6.70;99.90
16929;DHT22;8581;47.334;11.190;2023-04-03T09:47:29;6.20;99.90
16929;DHT22;8581;47.334;11.190;2023-04-03T09:50:20;6.10;99.90
16929;DHT22;8581;47.334;11.190;2023-04-03T09:52:52;5.80;99.90
16929;DHT22;8581;47.334;11.190;2023-04-03T09:55:25;5.50;99.90
16929;DHT22;8581;47.334;11.190;2023-04-03T09:57:59;5.40;99.90
16929;DHT22;8581;47.334;11.190;2023-04-03T10:00:34;5.50;99.90
16929;DHT22;8581;47.334;11.190;2023-04-03T10:03:05;5.30;99.90
16929;DHT22;8581;47.334;11.190;2023-04-03T10:05:37;5.40;99.90
16929;DHT22;8581;47.334;11.190;2023-04-03T10:08:27;5.60;99.90
16929;DHT22;8581;47.334;11.190;2023-04-03T10:11:07;5.90;99.90
16929;DHT22;8581;47.334;11.190;2023-04-03T10:13:49;6.00;99.90
16929;DHT22;8581;47.334;11.190;2023-04-03T10:16:12;7.10;99.90
16929;DHT22;8581;47.334;11.190;2023-04-03T10:18:44;8.40;99.90
16929;DHT22;8581;47.334;11.190;2023-04-03T10:21:24;9.60;99.90
16929;DHT22;8581;47.334;11.190;2023-04-03T10:23:54;10.90;99.90
16929;DHT22;8581;47.334;11.190;2023-04-03T10:30:19;11.90;99.90
16929;DHT22;8581;47.334;11.190;2023-04-03T10:35:20;12.10;99.90
16929;DHT22;8581;47.334;11.190;2023-04-03T10:37:54;12.70;99.90
16929;DHT22;8581;47.334;11.190;2023-04-03T10:40:43;13.00;99.90
16929;DHT22;8581;47.334;11.190;2023-04-03T10:43:17;13.00;99.90
16929;DHT22;8581;47.334;11.190;2023-04-03T10:46:08;13.90;99.90
16929;DHT22;8581;47.334;11.190;2023-04-03T10:48:47;13.90;99.90
16929;DHT22;8581;47.334;11.190;2023-04-03T10:51:22;14.20;99.90
16929;DHT22;8581;47.334;11.190;2023-04-03T10:53:55;13.40;99.90
16929;DHT22;8581;47.334;11.190;2023-04-03T10:56:31;12.10;99.90
16929;DHT22;8581;47.334;11.190;2023-04-03T10:59:25;12.50;99.90
16929;DHT22;8581;47.334;11.190;2023-04-03T11:01:58;13.50;99.90
16929;DHT22;8581;47.334;11.190;2023-04-03T11:04:29;14.30;99.90
16929;DHT22;8581;47.334;11.190;2023-04-03T11:07:02;14.20;99.90
16929;DHT22;8581;47.334;11.190;2023-04-03T11:09:33;13.80;99.90
16929;DHT22;8581;47.334;11.190;2023-04-03T11:12:06;12.50;99.90
16929;DHT22;8581;47.334;11.190;2023-04-03T11:14:36;11.70;99.90
16929;DHT22;8581;47.334;11.190;2023-04-03T11:17:27;10.20;99.90
16929;DHT22;8581;47.334;11.190;2023-04-03T11:20:10;9.10;99.90
16929;DHT22;8581;47.334;11.190;2023-04-03T11:22:39;8.50;99.90
16929;DHT22;8581;47.334;11.190;2023-04-03T11:25:18;7.70;99.90
16929;DHT22;8581;47.334;11.190;2023-04-03T11:27:59;7.60;99.90
16929;DHT22;8581;47.334;11.190;2023-04-03T11:30:39;7.50;99.90
16929;DHT22;8581;47.334;11.190;2023-04-03T11:36:07;11.40;99.90
16929;DHT22;8581;47.334;11.190;2023-04-03T11:38:42;13.20;99.90
16929;DHT22;8581;47.334;11.190;2023-04-03T11:41:13;14.20;99.90
16929;DHT22;8581;47.334;11.190;2023-04-03T11:44:02;14.30;99.80
16929;DHT22;8581;47.334;11.190;2023-04-03T11:46:50;14.80;99.90
16929;DHT22;8581;47.334;11.190;2023-04-03T11:52:09;11.90;99.90
16929;DHT22;8581;47.334;11.190;2023-04-03T11:54:44;12.00;99.90
16929;DHT22;8581;47.334;11.190;2023-04-03T12:02:52;10.80;99.90
16929;DHT22;8581;47.334;11.190;2023-04-03T12:05:26;9.70;99.90
16929;DHT22;8581;47.334;11.190;2023-04-03T12:10:39;8.40;99.90
16929;DHT22;8581;47.334;11.190;2023-04-03T12:13:15;8.10;99.90
16929;DHT22;8581;47.334;11.190;2023-04-03T12:15:47;7.60;99.90
16929;DHT22;8581;47.334;11.190;2023-04-03T12:21:00;7.90;99.90
16929;DHT22;8581;47.334;11.190;2023-04-03T12:23:33;7.20;99.90
16929;DHT22;8581;47.334;11.190;2023-04-03T12:26:18;7.00;99.90
16929;DHT22;8581;47.334;11.190;2023-04-03T12:28:37;6.50;99.90
16929;DHT22;8581;47.334;11.190;2023-04-03T12:31:10;6.90;99.90
16929;DHT22;8581;47.334;11.190;2023-04-03T12:36:40;8.80;99.90
16929;DHT22;8581;47.334;11.190;2023-04-03T12:39:35;8.80;99.90
16929;DHT22;8581;47.334;11.190;2023-04-03T12:45:15;7.40;99.90
16929;DHT22;8581;47.334;11.190;2023-04-03T12:47:45;7.50;99.90
16929;DHT22;8581;47.334;11.190;2023-04-03T12:50:20;9.20;99.90
16929;DHT22;8581;47.334;11.190;2023-04-03T12:52:54;11.20;99.90
16929;DHT22;8581;47.334;11.190;2023-04-03T12:55:23;13.20;99.90
16929;DHT22;8581;47.334;11.190;2023-04-03T12:57:55;13.60;99.10
16929;DHT22;8581;47.334;11.190;2023-04-03T13:00:35;12.20;99.90
16929;DHT22;8581;47.334;11.190;2023-04-03T13:03:07;11.40;99.90
16929;DHT22;8581;47.334;11.190;2023-04-03T13:05:38;11.90;99.90
16929;DHT22;8581;47.334;11.190;2023-04-03T13:08:11;12.90;99.90
16929;DHT22;8581;47.334;11.190;2023-04-03T13:10:47;14.20;99.00
16929;DHT22;8581;47.334;11.190;2023-04-03T13:13:15;15.30;97.60
16929;DHT22;8581;47.334;11.190;2023-04-03T13:15:47;14.10;96.60
16929;DHT22;8581;47.334;11.190;2023-04-03T13:18:22;13.10;98.30
16929;DHT22;8581;47.334;11.190;2023-04-03T13:20:53;15.10;98.40
16929;DHT22;8581;47.334;11.190;2023-04-03T13:23:24;16.10;95.80
16929;DHT22;8581;47.334;11.190;2023-04-03T13:25:56;13.40;95.80
16929;DHT22;8581;47.334;11.190;2023-04-03T13:28:27;12.70;98.40
16929;DHT22;8581;47.334;11.190;2023-04-03T13:31:20;13.70;98.00
16929;DHT22;8581;47.334;11.190;2023-04-03T13:34:09;15.70;96.20
16929;DHT22;8581;47.334;11.190;2023-04-03T13:36:40;16.60;94.30
16929;DHT22;8581;47.334;11.190;2023-04-03T13:39:27;16.40;93.20
16929;DHT22;8581;47.334;11.190;2023-04-03T13:41:59;15.00;93.10
16929;DHT22;8581;47.334;11.190;2023-04-03T13:44:33;14.40;94.10
16929;DHT22;8581;47.334;11.190;2023-04-03T13:47:15;13.80;94.90
16929;DHT22;8581;47.334;11.190;2023-04-03T13:49:46;12.60;95.90
16929;DHT22;8581;47.334;11.190;2023-04-03T13:52:33;12.40;97.50
16929;DHT22;8581;47.334;11.190;2023-04-03T13:55:23;13.40;96.50
16929;DHT22;8581;47.334;11.190;2023-04-03T13:57:55;12.30;96.90
16929;DHT22;8581;47.334;11.190;2023-04-03T14:00:28;11.60;97.10
16929;DHT22;8581;47.334;11.190;2023-04-03T14:02:59;10.30;98.20
16929;DHT22;8581;47.334;11.190;2023-04-03T14:05:30;9.60;98.10
16929;DHT22;8581;47.334;11.190;2023-04-03T14:08:02;9.80;99.90
16929;DHT22;8581;47.334;11.190;2023-04-03T14:10:34;11.70;99.20
16929;DHT22;8581;47.334;11.190;2023-04-03T14:13:05;13.20;97.60
16929;DHT22;8581;47.334;11.190;2023-04-03T14:15:37;12.20;96.80
16929;DHT22;8581;47.334;11.190;2023-04-03T14:18:12;11.70;97.70
16929;DHT22;8581;47.334;11.190;2023-04-03T14:20:47;12.20;98.30
16929;DHT22;8581;47.334;11.190;2023-04-03T14:23:15;14.00;97.10
16929;DHT22;8581;47.334;11.190;2023-04-03T14:25:46;13.50;97.00
16929;DHT22;8581;47.334;11.190;2023-04-03T14:28:19;12.80;96.40
16929;DHT22;8581;47.334;11.190;2023-04-03T14:30:50;11.80;97.30
16929;DHT22;8581;47.334;11.190;2023-04-03T14:33:21;10.80;98.10
16929;DHT22;8581;47.334;11.190;2023-04-03T14:35:53;10.90;98.40
16929;DHT22;8581;47.334;11.190;2023-04-03T14:38:25;12.10;98.10
16929;DHT22;8581;47.334;11.190;2023-04-03T14:40:56;12.70;97.70
16929;DHT22;8581;47.334;11.190;2023-04-03T14:43:28;12.30;96.10
16929;DHT22;8581;47.334;11.190;2023-04-03T14:45:59;10.90;98.00
16929;DHT22;8581;47.334;11.190;2023-04-03T14:48:31;9.60;98.70
16929;DHT22;8581;47.334;11.190;2023-04-03T14:51:02;9.30;99.50
16929;DHT22;8581;47.334;11.190;2023-04-03T14:53:34;8.90;99.90
16929;DHT22;8581;47.334;11.190;2023-04-03T14:56:12;8.60;99.90
16929;DHT22;8581;47.334;11.190;2023-04-03T14:58:43;8.20;99.90
16929;DHT22;8581;47.334;11.190;2023-04-03T15:01:16;7.50;99.90
16929;DHT22;8581;47.334;11.190;2023-04-03T15:03:47;7.50;99.90
16929;DHT22;8581;47.334;11.190;2023-04-03T15:06:18;7.60;99.90
16929;DHT22;8581;47.334;11.190;2023-04-03T15:08:50;8.00;99.90
16929;DHT22;8581;47.334;11.190;2023-04-03T15:11:22;8.30;99.90
16929;DHT22;8581;47.334;11.190;2023-04-03T15:13:53;7.90;99.90
16929;DHT22;8581;47.334;11.190;2023-04-03T15:16:25;7.80;99.90
16929;DHT22;8581;47.334;11.190;2023-04-03T15:18:56;7.10;99.90
16929;DHT22;8581;47.334;11.190;2023-04-03T15:21:28;7.20;99.90
16929;DHT22;8581;47.334;11.190;2023-04-03T15:24:00;6.30;99.90
16929;DHT22;8581;47.334;11.190;2023-04-03T15:26:31;5.80;99.90
16929;DHT22;8581;47.334;11.190;2023-04-03T15:29:03;5.70;99.90
16929;DHT22;8581;47.334;11.190;2023-04-03T15:31:34;5.30;99.90
16929;DHT22;8581;47.334;11.190;2023-04-03T15:34:06;5.50;99.90
16929;DHT22;8581;47.334;11.190;2023-04-03T15:36:37;5.70;99.90
16929;DHT22;8581;47.334;11.190;2023-04-03T15:39:09;5.50;99.90
16929;DHT22;8581;47.334;11.190;2023-04-03T15:41:41;5.60;99.90
16929;DHT22;8581;47.334;11.190;2023-04-03T15:44:13;5.70;99.90
16929;DHT22;8581;47.334;11.190;2023-04-03T15:46:46;5.30;99.90
16929;DHT22;8581;47.334;11.190;2023-04-03T15:49:18;5.10;99.90
16929;DHT22;8581;47.334;11.190;2023-04-03T15:51:49;5.20;99.90
16929;DHT22;8581;47.334;11.190;2023-04-03T15:54:21;5.00;99.90
16929;DHT22;8581;47.334;11.190;2023-04-03T15:56:53;5.20;99.90
16929;DHT22;8581;47.334;11.190;2023-04-03T15:59:24;5.20;99.90
16929;DHT22;8581;47.334;11.190;2023-04-03T16:01:56;5.60;99.90
16929;DHT22;8581;47.334;11.190;2023-04-03T16:04:27;5.30;99.90
16929;DHT22;8581;47.334;11.190;2023-04-03T16:07:01;5.00;99.90
16929;DHT22;8581;47.334;11.190;2023-04-03T16:09:32;4.80;99.90
16929;DHT22;8581;47.334;11.190;2023-04-03T16:12:03;4.80;99.90
16929;DHT22;8581;47.334;11.190;2023-04-03T16:14:35;4.60;99.90
16929;DHT22;8581;47.334;11.190;2023-04-03T16:17:06;4.40;99.90
16929;DHT22;8581;47.334;11.190;2023-04-03T16:19:38;4.40;99.90
16929;DHT22;8581;47.334;11.190;2023-04-03T16:22:10;4.40;99.90
16929;DHT22;8581;47.334;11.190;2023-04-03T16:24:42;4.50;99.90
16929;DHT22;8581;47.334;11.190;2023-04-03T16:27:14;4.20;99.90
16929;DHT22;8581;47.334;11.190;2023-04-03T16:29:46;4.10;99.90
16929;DHT22;8581;47.334;11.190;2023-04-03T16:32:17;3.90;99.90
16929;DHT22;8581;47.334;11.190;2023-04-03T16:34:49;3.50;99.90
16929;DHT22;8581;47.334;11.190;2023-04-03T16:37:20;3.50;99.90
16929;DHT22;8581;47.334;11.190;2023-04-03T16:39:52;3.40;99.90
16929;DHT22;8581;47.334;11.190;2023-04-03T16:42:24;4.20;99.90
16929;DHT22;8581;47.334;11.190;2023-04-03T16:44:55;4.50;99.90
16929;DHT22;8581;47.334;11.190;2023-04-03T16:47:27;5.00;99.90
16929;DHT22;8581;47.334;11.190;2023-04-03T16:49:58;4.40;99.90
16929;DHT22;8581;47.334;11.190;2023-04-03T16:52:30;4.20;99.90
16929;DHT22;8581;47.334;11.190;2023-04-03T16:55:02;4.20;99.90
16929;DHT22;8581;47.334;11.190;2023-04-03T16:57:33;4.60;99.90
16929;DHT22;8581;47.334;11.190;2023-04-03T17:00:06;4.50;99.90
16929;DHT22;8581;47.334;11.190;2023-04-03T17:02:38;5.30;99.90
16929;DHT22;8581;47.334;11.190;2023-04-03T17:05:09;5.40;99.90
16929;DHT22;8581;47.334;11.190;2023-04-03T17:07:41;5.40;99.90